Time;durP1;ratioP1;P1;durP2;ratioP2;P2;SDS_P1;SDS_P2;PMS_P1;PMS_P2;Temp;Humidity;BMP_temperature;BMP_pressure;BME280_temperature;BME280_humidity;BME280_pressure;Samples;Min_cycle;Max_cycle;Signal;HPM_P1;HPM_P2
2022/10/02 00:02:27;;;;;;;15.98;10.60;;;;;;;17.60;95.51;100293.31;1705714;83;21417;-85
2022/10/02 00:05:02;;;;;;;13.40;10.25;;;;;;;17.58;95.82;100296.11;1701625;83;20936;-85
2022/10/02 00:07:42;;;;;;;12.30;10.28;;;;;;;17.56;96.01;100291.47;1697498;83;21193;-85
2022/10/02 00:10:17;;;;;;;10.85;9.70;;;;;;;17.54;96.33;100281.95;1680867;84;20952;-85
2022/10/02 00:12:45;;;;;;;17.52;10.55;;;;;;;17.53;96.51;100286.44;1712201;83;21263;-85
2022/10/02 00:15:19;;;;;;;13.45;9.70;;;;;;;17.52;96.72;100283.45;1693359;83;21081;-85
2022/10/02 00:17:47;;;;;;;12.03;10.23;;;;;;;17.52;96.89;100281.27;1676261;84;21003;-83
2022/10/02 00:20:16;;;;;;;18.00;12.20;;;;;;;17.52;97.13;100283.92;1668504;84;21477;-87
2022/10/02 00:22:51;;;;;;;12.93;10.43;;;;;;;17.51;97.31;100279.61;1666554;83;21425;-85
2022/10/02 00:25:36;;;;;;;14.93;10.13;;;;;;;17.51;97.54;100281.77;1718275;83;20963;-85
2022/10/02 00:28:33;;;;;;;14.40;11.00;;;;;;;17.51;97.73;100279.11;1694266;83;21062;-86
2022/10/02 00:31:43;;;;;;;14.30;10.38;;;;;;;17.51;98.09;100275.63;1656038;85;21042;-85
2022/10/02 00:34:50;;;;;;;12.82;10.60;;;;;;;17.51;98.35;100280.44;1662360;85;21022;-84
2022/10/02 00:37:44;;;;;;;18.02;12.85;;;;;;;17.50;98.66;100275.30;1661735;85;21663;-80
2022/10/02 00:40:34;;;;;;;12.53;10.60;;;;;;;17.50;98.90;100283.25;1661224;85;21168;-85
2022/10/02 00:43:27;;;;;;;11.60;10.40;;;;;;;17.50;99.06;100280.11;1653665;84;20996;-87
2022/10/02 00:46:02;;;;;;;14.10;12.13;;;;;;;17.50;99.23;100274.80;1658657;85;21030;-86
2022/10/02 00:48:53;;;;;;;14.38;11.88;;;;;;;17.49;99.45;100283.72;1657991;86;20951;-86
2022/10/02 00:51:52;;;;;;;15.38;11.35;;;;;;;17.50;99.56;100277.95;1694450;83;20909;-86
2022/10/02 00:54:45;;;;;;;15.85;12.50;;;;;;;17.49;99.79;100282.40;1701145;83;21140;-86
2022/10/02 00:57:32;;;;;;;17.48;12.73;;;;;;;17.48;100.00;100278.09;1681955;83;21552;-86
2022/10/02 01:00:17;;;;;;;15.43;13.78;;;;;;;17.48;100.00;100275.94;1680967;83;20912;-85
2022/10/02 01:03:11;;;;;;;19.40;12.93;;;;;;;17.47;100.00;100268.95;1705802;83;21042;-85
2022/10/02 01:05:38;;;;;;;15.95;11.90;;;;;;;17.46;100.00;100272.09;1691970;83;20903;-84
2022/10/02 01:08:06;;;;;;;19.80;13.62;;;;;;;17.45;100.00;100273.55;1665644;84;21247;-83
2022/10/02 01:10:34;;;;;;;15.93;14.00;;;;;;;17.44;100.00;100270.08;1644326;83;20884;-86
2022/10/02 01:13:01;;;;;;;14.25;12.85;;;;;;;17.43;100.00;100267.09;1703540;83;21466;-87
2022/10/02 01:15:32;;;;;;;16.00;13.88;;;;;;;17.42;100.00;100272.03;1699680;83;20916;-85
2022/10/02 01:18:01;;;;;;;13.90;12.43;;;;;;;17.41;100.00;100279.66;1708516;83;21010;-85
2022/10/02 01:20:44;;;;;;;16.87;14.68;;;;;;;17.39;100.00;100263.89;1720820;83;21889;-83
2022/10/02 01:23:41;;;;;;;15.90;14.15;;;;;;;17.37;100.00;100263.69;1703650;83;20939;-84
2022/10/02 01:26:07;;;;;;;18.23;15.38;;;;;;;17.34;100.00;100258.20;1652338;85;21007;-85
2022/10/02 01:28:34;;;;;;;17.85;14.63;;;;;;;17.34;100.00;100248.05;1652204;83;20908;-84
2022/10/02 01:31:06;;;;;;;19.35;14.80;;;;;;;17.32;100.00;100241.59;1704637;81;20869;-85
2022/10/02 01:33:33;;;;;;;22.15;16.20;;;;;;;17.31;100.00;100229.31;1697821;82;21188;-83
2022/10/02 01:36:01;;;;;;;18.27;15.63;;;;;;;17.30;100.00;100226.83;1704232;83;20938;-83
2022/10/02 01:38:27;;;;;;;17.05;14.35;;;;;;;17.27;100.00;100229.25;1710388;83;21389;-85
2022/10/02 01:40:54;;;;;;;16.07;14.38;;;;;;;17.26;100.00;100219.64;1718096;82;20924;-84
2022/10/02 01:43:31;;;;;;;19.15;14.68;;;;;;;17.26;100.00;100224.11;1718245;83;21915;-87
2022/10/02 01:46:24;;;;;;;17.52;15.23;;;;;;;17.25;100.00;100212.66;1702092;83;21288;-84
2022/10/02 01:49:12;;;;;;;16.75;15.08;;;;;;;17.24;100.00;100214.97;1700590;83;20900;-84
2022/10/02 01:52:19;;;;;;;18.40;14.33;;;;;;;17.23;100.00;100202.72;1707757;83;21464;-83
2022/10/02 01:55:04;;;;;;;21.07;15.28;;;;;;;17.23;100.00;100204.51;1703684;83;20892;-84
2022/10/02 01:57:53;;;;;;;18.75;15.13;;;;;;;17.20;100.00;100194.55;1692563;83;21091;-85
2022/10/02 02:00:24;;;;;;;17.55;14.93;;;;;;;17.20;100.00;100191.06;1707385;83;21221;-85
2022/10/02 02:02:59;;;;;;;16.48;14.33;;;;;;;17.19;100.00;100178.81;1701969;83;20947;-85
2022/10/02 02:05:37;;;;;;;17.57;15.80;;;;;;;17.19;100.00;100175.66;1710915;82;20987;-84
2022/10/02 02:08:15;;;;;;;16.82;14.03;;;;;;;17.18;100.00;100167.84;1705850;82;21483;-84
2022/10/02 02:11:12;;;;;;;15.85;13.50;;;;;;;17.17;100.00;100163.05;1701358;83;20936;-86
2022/10/02 02:13:54;;;;;;;16.62;14.83;;;;;;;17.16;100.00;100158.74;1704109;82;21515;-85
2022/10/02 02:16:30;;;;;;;16.67;14.23;;;;;;;17.15;100.00;100143.81;1702998;83;20888;-86
2022/10/02 02:19:09;;;;;;;16.97;14.53;;;;;;;17.15;100.00;100141.66;1693125;83;21058;-85
2022/10/02 02:21:50;;;;;;;18.57;15.03;;;;;;;17.13;100.00;100137.81;1705708;83;21097;-85
2022/10/02 02:24:37;;;;;;;16.93;14.73;;;;;;;17.13;100.00;100130.37;1712875;83;20952;-85
2022/10/02 02:27:04;;;;;;;21.07;15.53;;;;;;;17.10;100.00;100126.20;1693240;83;21435;-86
2022/10/02 02:29:33;;;;;;;16.50;14.80;;;;;;;17.09;100.00;100125.84;1701513;83;21446;-85
2022/10/02 02:32:02;;;;;;;23.10;17.37;;;;;;;17.06;100.00;100112.89;1705783;83;20928;-84
2022/10/02 02:34:37;;;;;;;19.60;17.10;;;;;;;17.03;100.00;100107.91;1705688;83;21035;-85
2022/10/02 02:37:10;;;;;;;24.27;19.62;;;;;;;17.01;100.00;100105.03;1701297;83;20999;-85
2022/10/02 02:40:04;;;;;;;24.47;18.70;;;;;;;16.98;100.00;100100.40;1705749;83;21107;-84
2022/10/02 02:42:34;;;;;;;21.48;19.17;;;;;;;16.96;100.00;100097.06;1688311;83;20908;-84
2022/10/02 02:45:10;;;;;;;23.57;19.92;;;;;;;16.96;100.00;100098.84;1706770;83;21023;-84
2022/10/02 02:47:53;;;;;;;21.57;18.85;;;;;;;16.95;100.00;100087.92;1706123;82;20932;-85
2022/10/02 02:50:26;;;;;;;25.32;21.00;;;;;;;16.94;100.00;100092.39;1720602;83;20947;-84
2022/10/02 02:53:05;;;;;;;21.82;18.82;;;;;;;16.94;100.00;100096.83;1712258;83;21235;-86
2022/10/02 02:55:36;;;;;;;21.80;19.48;;;;;;;16.94;100.00;100099.02;1697979;83;21526;-85
2022/10/02 02:58:17;;;;;;;27.50;21.45;;;;;;;16.95;100.00;100097.19;1699625;82;20907;-85
2022/10/02 03:00:45;;;;;;;28.73;20.95;;;;;;;16.96;100.00;100094.87;1704720;83;20935;-84
2022/10/02 03:03:12;;;;;;;27.40;21.33;;;;;;;16.98;100.00;100094.24;1720691;83;21007;-85
2022/10/02 03:05:42;;;;;;;28.27;19.65;;;;;;;16.99;100.00;100096.75;1708063;83;21999;-87
2022/10/02 03:08:23;;;;;;;26.42;21.85;;;;;;;17.01;100.00;100089.99;1697877;83;20908;-86
2022/10/02 03:11:06;;;;;;;24.32;19.80;;;;;;;17.03;100.00;100084.52;1723714;82;20932;-85
2022/10/02 03:14:22;;;;;;;24.77;19.30;;;;;;;17.04;100.00;100086.21;1635463;85;21154;-85
2022/10/02 03:17:19;;;;;;;34.25;23.02;;;;;;;17.05;100.00;100090.05;1655504;85;21624;-84
2022/10/02 03:20:28;;;;;;;30.92;23.50;;;;;;;17.07;100.00;100080.11;1655382;86;21153;-86
2022/10/02 03:23:24;;;;;;;33.83;23.67;;;;;;;17.09;100.00;100072.02;1656098;85;21044;-86
2022/10/02 03:26:02;;;;;;;37.17;24.67;;;;;;;17.10;100.00;100073.21;1652419;85;21483;-86
2022/10/02 03:28:56;;;;;;;28.95;24.45;;;;;;;17.12;100.00;100066.41;1645711;86;21133;-85
2022/10/02 03:31:25;;;;;;;29.03;24.73;;;;;;;17.11;100.00;100061.62;1652628;84;20923;-85
2022/10/02 03:33:52;;;;;;;30.32;23.60;;;;;;;17.15;100.00;100058.19;1653679;86;21157;-87
2022/10/02 03:36:24;;;;;;;31.02;24.50;;;;;;;17.17;100.00;100051.76;1655775;85;20973;-85
2022/10/02 03:38:47;;;;;;;30.52;23.73;;;;;;;17.20;100.00;100049.30;1624801;87;21568;-86
2022/10/02 03:41:14;;;;;;;25.43;22.70;;;;;;;17.22;100.00;100047.83;1629005;87;21145;-87
2022/10/02 03:43:40;;;;;;;27.02;21.52;;;;;;;17.23;100.00;100045.05;1622392;87;20925;-86
2022/10/02 03:46:07;;;;;;;27.70;22.35;;;;;;;17.25;100.00;100052.82;1629354;87;21260;-85
2022/10/02 03:48:35;;;;;;;28.73;22.40;;;;;;;17.27;100.00;100050.36;1613902;86;21080;-85
2022/10/02 03:51:01;;;;;;;28.17;21.82;;;;;;;17.28;100.00;100055.19;1636702;85;21007;-86
2022/10/02 03:53:34;;;;;;;25.57;19.65;;;;;;;17.30;100.00;100057.20;1664280;85;20986;-87
2022/10/02 03:56:10;;;;;;;23.92;19.15;;;;;;;17.31;100.00;100048.26;1660398;85;20968;-87
2022/10/02 03:58:40;;;;;;;22.87;18.57;;;;;;;17.32;100.00;100045.47;1650022;85;21246;-86
2022/10/02 04:01:11;;;;;;;26.55;19.05;;;;;;;17.33;100.00;100041.82;1692782;83;20958;-85
2022/10/02 04:03:49;;;;;;;20.17;17.52;;;;;;;17.34;100.00;100043.97;1695544;83;20935;-87
2022/10/02 04:06:44;;;;;;;22.85;18.00;;;;;;;17.35;100.00;100042.50;1663569;84;21173;-86
2022/10/02 04:09:16;;;;;;;22.58;17.77;;;;;;;17.37;100.00;100047.16;1667011;84;21019;-85
2022/10/02 04:12:12;;;;;;;22.37;15.83;;;;;;;17.39;100.00;100049.67;1655404;84;21129;-87
2022/10/02 04:14:43;;;;;;;19.42;16.07;;;;;;;17.42;100.00;100044.56;1667445;84;20935;-86
2022/10/02 04:17:21;;;;;;;17.42;15.40;;;;;;;17.45;100.00;100051.70;1667440;84;21608;-86
2022/10/02 04:20:05;;;;;;;20.85;15.65;;;;;;;17.47;100.00;100049.73;1720221;83;20908;-85
2022/10/02 04:24:37;;;;;;;20.37;15.55;;;;;;;17.57;100.00;100051.83;1854552;76;23621;-85
2022/10/02 04:27:21;;;;;;;21.48;16.02;;;;;;;17.54;100.00;100061.43;1822345;78;20962;-86
2022/10/02 04:29:56;;;;;;;21.85;15.18;;;;;;;17.57;100.00;100070.39;1822421;78;21606;-86
2022/10/02 04:32:26;;;;;;;21.48;17.48;;;;;;;17.60;100.00;100058.65;1822029;78;21471;-86
2022/10/02 04:34:53;;;;;;;20.32;15.10;;;;;;;17.60;100.00;100043.56;1821793;78;21018;-86
2022/10/02 04:37:44;;;;;;;19.17;16.85;;;;;;;17.63;100.00;100034.50;1817118;78;20903;-87
2022/10/02 04:40:36;;;;;;;17.95;13.65;;;;;;;17.66;100.00;100039.48;1821994;78;20844;-85
2022/10/02 04:43:32;;;;;;;14.90;13.30;;;;;;;17.69;100.00;100033.87;1822044;78;21596;-86
2022/10/02 04:46:52;;;;;;;29.20;24.25;;;;;;;17.73;100.00;100037.88;1821742;78;20914;-86
2022/10/02 04:49:55;;;;;;;32.83;28.42;;;;;;;17.76;100.00;100044.23;1821965;78;21476;-86
2022/10/02 04:52:54;;;;;;;32.25;25.32;;;;;;;17.80;99.73;100034.95;1822106;78;21443;-87
2022/10/02 04:55:37;;;;;;;33.05;28.10;;;;;;;17.81;98.48;100032.69;1822793;78;20907;-87
2022/10/02 04:58:45;;;;;;;20.70;15.85;;;;;;;17.83;97.76;100025.91;1823037;78;21298;-86
2022/10/02 05:01:30;;;;;;;12.20;9.73;;;;;;;17.86;97.08;100022.94;1824210;78;20987;-85
2022/10/02 05:04:34;;;;;;;12.98;10.60;;;;;;;17.89;96.12;100019.97;1824293;78;20871;-86
2022/10/02 05:07:38;;;;;;;14.33;10.05;;;;;;;17.92;95.49;100021.01;1753210;81;20909;-87
2022/10/02 05:10:48;;;;;;;10.55;8.58;;;;;;;17.95;94.53;100013.23;1753180;81;20960;-85
2022/10/02 05:13:38;;;;;;;12.10;7.60;;;;;;;17.97;93.63;100011.25;1727907;81;21794;-87
2022/10/02 05:16:22;;;;;;;10.80;6.78;;;;;;;18.00;92.75;100010.94;1728120;82;20961;-87
2022/10/02 05:19:29;;;;;;;11.10;7.90;;;;;;;18.04;92.10;100011.47;1723082;81;21066;-87
2022/10/02 05:22:27;;;;;;;9.85;6.92;;;;;;;18.08;91.58;100007.02;1727920;81;20959;-85
2022/10/02 05:25:28;;;;;;;9.05;6.22;;;;;;;18.13;90.79;99995.44;1697276;82;20966;-86
2022/10/02 05:28:35;;;;;;;6.62;6.00;;;;;;;18.17;89.93;99982.20;1614889;87;21118;-87
2022/10/02 05:31:23;;;;;;;13.22;6.80;;;;;;;18.23;89.12;99967.48;1615017;87;20981;-87
2022/10/02 05:34:21;;;;;;;8.35;5.58;;;;;;;18.28;88.60;99960.36;1588584;87;21032;-86
2022/10/02 05:37:08;;;;;;;7.17;4.95;;;;;;;18.36;88.15;99956.41;1616571;86;20950;-86
2022/10/02 05:39:42;;;;;;;7.65;4.65;;;;;;;18.50;87.63;99935.91;1599306;86;21095;-87
2022/10/02 05:42:30;;;;;;;6.22;4.62;;;;;;;18.63;86.72;99935.43;1614231;87;21196;-87
2022/10/02 05:45:20;;;;;;;4.78;4.33;;;;;;;18.70;85.35;99935.14;1648336;85;21412;-86
2022/10/02 05:47:47;;;;;;;7.03;5.33;;;;;;;18.78;84.17;99931.70;1647967;85;21569;-86
2022/10/02 05:50:29;;;;;;;8.05;5.78;;;;;;;18.81;83.30;99935.38;1654079;85;21531;-86
2022/10/02 05:53:20;;;;;;;8.65;4.75;;;;;;;18.81;82.87;99928.73;1653846;85;21442;-86
2022/10/02 05:56:01;;;;;;;17.45;15.08;;;;;;;18.82;82.24;99925.89;1653925;86;21111;-87
2022/10/02 05:58:55;;;;;;;14.53;11.57;;;;;;;18.82;81.88;99922.41;1653722;86;21389;-86
2022/10/02 06:01:29;;;;;;;10.70;8.78;;;;;;;18.83;81.66;99935.55;1655778;86;20963;-86
2022/10/02 06:04:19;;;;;;;19.37;13.70;;;;;;;18.83;81.29;99920.94;1655188;86;20995;-86
2022/10/02 06:06:54;;;;;;;31.30;25.97;;;;;;;18.84;81.22;99919.09;1755189;81;21254;-86
2022/10/02 06:09:29;;;;;;;9.63;6.47;;;;;;;18.84;80.90;99908.47;1754945;81;21173;-86
2022/10/02 06:12:08;;;;;;;8.33;5.83;;;;;;;18.88;80.82;99901.02;1822584;78;21389;-87
2022/10/02 06:14:46;;;;;;;9.45;5.12;;;;;;;18.93;80.36;99901.34;1799628;78;20871;-88
2022/10/02 06:17:23;;;;;;;6.85;5.05;;;;;;;18.99;80.39;99894.87;1821398;78;20958;-86
2022/10/02 06:20:00;;;;;;;9.00;4.70;;;;;;;19.08;79.86;99893.06;1821680;78;21341;-87
2022/10/02 06:22:31;;;;;;;5.08;4.58;;;;;;;19.15;79.60;99887.92;1821483;78;21232;-89
2022/10/02 06:25:10;;;;;;;11.40;5.60;;;;;;;19.18;79.37;99877.77;1821728;78;21322;-88
2022/10/02 06:27:51;;;;;;;5.42;4.62;;;;;;;19.21;79.21;99868.15;1822215;78;20951;-88
2022/10/02 06:30:18;;;;;;;6.42;4.53;;;;;;;19.26;78.98;99859.67;1821868;78;20967;-87
2022/10/02 06:33:02;;;;;;;8.48;5.30;;;;;;;19.31;78.99;99853.34;1821606;78;20931;-86
2022/10/02 06:36:01;;;;;;;6.58;4.33;;;;;;;19.35;78.57;99857.34;1821249;78;21155;-87
2022/10/02 06:39:07;;;;;;;7.95;4.37;;;;;;;19.42;78.41;99849.01;1821221;78;20875;-87
2022/10/02 06:41:53;;;;;;;6.03;4.37;;;;;;;19.47;77.98;99853.82;1821518;78;20978;-87
2022/10/02 06:45:07;;;;;;;9.03;4.20;;;;;;;19.53;77.41;99848.34;1821490;78;20923;-86
2022/10/02 06:48:01;;;;;;;11.20;5.05;;;;;;;19.56;77.07;99841.34;1821656;78;20986;-86
2022/10/02 06:50:55;;;;;;;7.97;4.67;;;;;;;19.60;76.66;99837.34;1821578;78;21821;-87
2022/10/02 06:53:33;;;;;;;9.48;4.40;;;;;;;19.65;76.53;99837.66;1794421;78;21176;-87
2022/10/02 06:56:09;;;;;;;17.12;5.50;;;;;;;19.66;76.11;99829.52;1821624;78;21396;-85
2022/10/02 06:59:13;;;;;;;14.25;5.28;;;;;;;19.66;76.12;99817.55;1820557;78;20888;-85
2022/10/02 07:02:23;;;;;;;18.23;6.12;;;;;;;19.70;76.17;99812.76;1821858;78;20900;-87
2022/10/02 07:05:16;;;;;;;9.33;4.90;;;;;;;19.74;76.01;99817.22;1821652;78;21194;-86
2022/10/02 07:08:05;;;;;;;7.33;5.42;;;;;;;19.77;76.07;99824.88;1821724;78;20993;-85
2022/10/02 07:11:09;;;;;;;8.85;4.53;;;;;;;19.78;76.10;99826.52;1820761;78;21416;-84
2022/10/02 07:14:01;;;;;;;5.67;4.25;;;;;;;19.79;75.88;99844.98;1821557;78;20943;-85
2022/10/02 07:17:00;;;;;;;6.35;4.37;;;;;;;19.78;75.76;99846.47;1821759;78;20922;-85
2022/10/02 07:19:57;;;;;;;4.58;3.92;;;;;;;19.76;75.56;99841.31;1821587;78;21232;-85
2022/10/02 07:22:58;;;;;;;4.83;4.10;;;;;;;19.74;75.46;99843.31;1821514;78;20919;-85
2022/10/02 07:25:53;;;;;;;15.53;13.93;;;;;;;19.72;75.09;99836.51;1821605;78;20935;-84
2022/10/02 07:28:34;;;;;;;8.50;6.33;;;;;;;19.66;74.88;99836.17;1821510;78;20884;-87
2022/10/02 07:31:40;;;;;;;6.62;4.45;;;;;;;19.59;75.19;99837.86;1821596;78;20959;-86
2022/10/02 07:34:30;;;;;;;7.92;4.72;;;;;;;19.53;75.81;99826.56;1821591;78;21133;-85
2022/10/02 07:37:30;;;;;;;7.28;4.58;;;;;;;19.46;76.20;99821.59;1821385;78;21017;-87
2022/10/02 07:40:45;;;;;;;6.75;4.53;;;;;;;19.39;76.42;99817.45;1821832;78;20856;-88
2022/10/02 07:43:39;;;;;;;5.25;3.50;;;;;;;19.32;76.96;99799.66;1821974;78;20972;-86
2022/10/02 07:46:26;;;;;;;9.33;4.50;;;;;;;19.26;77.00;99798.53;1821794;78;20962;-87
2022/10/02 07:49:10;;;;;;;6.22;4.50;;;;;;;19.20;77.44;99797.36;1789380;80;21134;-86
2022/10/02 07:52:11;;;;;;;6.58;5.45;;;;;;;19.17;78.04;99784.92;1789912;79;21022;-88
2022/10/02 07:54:56;;;;;;;9.53;5.17;;;;;;;19.13;78.57;99782.27;1789193;79;20919;-89
2022/10/02 07:57:44;;;;;;;;;;;;;;;19.11;79.23;99774.95;1791949;79;20943;-87
2022/10/02 08:00:19;;;;;;;10.13;5.85;;;;;;;19.09;79.75;99771.64;1789771;79;20092;-89
2022/10/02 08:03:09;;;;;;;8.10;5.42;;;;;;;19.02;80.36;99763.00;1789554;80;21185;-86
2022/10/02 08:05:48;;;;;;;31.33;22.85;;;;;;;19.00;81.01;99754.87;1789546;79;20899;-87
2022/10/02 08:08:49;;;;;;;13.68;9.50;;;;;;;18.95;81.71;99750.56;1789418;79;20967;-87
2022/10/02 08:11:29;;;;;;;13.98;7.90;;;;;;;18.88;82.84;99745.09;1780649;79;21208;-86
2022/10/02 08:14:29;;;;;;;15.25;10.65;;;;;;;18.81;83.77;99732.16;1790349;79;20896;-84
2022/10/02 08:17:00;;;;;;;14.20;8.53;;;;;;;18.77;84.57;99724.15;1789844;80;21173;-84
2022/10/02 08:19:44;;;;;;;12.23;7.47;;;;;;;18.72;85.50;99727.31;1789389;79;20911;-86
2022/10/02 08:22:38;;;;;;;10.03;7.50;;;;;;;18.68;86.21;99737.93;1789379;79;20923;-85
2022/10/02 08:25:19;;;;;;;16.23;11.08;;;;;;;18.63;87.07;99725.16;1789650;79;20892;-86
2022/10/02 08:28:06;;;;;;;12.95;11.40;;;;;;;18.59;87.78;99718.51;1789315;79;20978;-87
2022/10/02 08:30:32;;;;;;;13.30;8.70;;;;;;;18.57;88.60;99719.67;1752102;81;21244;-86
2022/10/02 08:32:59;;;;;;;17.17;8.88;;;;;;;18.51;89.34;99721.16;1751974;82;21381;-85
2022/10/02 08:35:37;;;;;;;12.33;9.53;;;;;;;18.46;90.05;99712.86;1752031;82;21019;-85
2022/10/02 08:38:39;;;;;;;14.00;9.63;;;;;;;18.42;90.72;99704.39;1752181;82;20967;-86
2022/10/02 08:41:28;;;;;;;11.57;8.40;;;;;;;18.36;91.45;99703.74;1750916;82;21373;-85
2022/10/02 08:44:24;;;;;;;10.88;8.63;;;;;;;18.30;92.36;99706.23;1752139;81;21136;-86
2022/10/02 08:47:22;;;;;;;11.80;9.78;;;;;;;18.25;93.12;99708.52;1702809;82;21417;-85
2022/10/02 08:50:37;;;;;;;16.12;11.53;;;;;;;18.18;93.81;99695.90;1715992;83;20864;-85
2022/10/02 08:53:48;;;;;;;11.55;9.28;;;;;;;18.16;94.53;99696.59;1685691;84;21409;-85
2022/10/02 08:56:32;;;;;;;12.63;10.00;;;;;;;18.12;95.25;99685.97;1718862;80;20966;-84
2022/10/02 08:59:45;;;;;;;17.67;11.07;;;;;;;18.11;96.01;99688.27;1688723;82;21220;-85
2022/10/02 09:02:39;;;;;;;10.98;8.88;;;;;;;18.10;96.64;99681.31;1717636;83;21269;-88
2022/10/02 09:05:51;;;;;;;11.90;9.00;;;;;;;18.09;97.18;99678.81;1646010;86;20964;-85
2022/10/02 09:08:50;;;;;;;10.68;9.45;;;;;;;18.08;97.70;99683.30;1720552;82;20972;-85
2022/10/02 09:11:49;;;;;;;10.10;9.30;;;;;;;18.07;98.22;99678.97;1730906;82;21118;-86
2022/10/02 09:14:52;;;;;;;8.60;7.62;;;;;;;18.07;98.77;99671.52;1731096;82;21543;-88
2022/10/02 09:17:36;;;;;;;12.33;8.78;;;;;;;18.06;99.10;99680.48;1730750;82;20909;-85
2022/10/02 09:20:44;;;;;;;10.43;8.18;;;;;;;18.07;99.17;99676.31;1731368;82;20968;-84
2022/10/02 09:23:40;;;;;;;8.90;8.03;;;;;;;18.06;99.30;99663.23;1708696;82;21418;-86
2022/10/02 09:26:25;;;;;;;9.28;8.30;;;;;;;18.07;99.47;99652.44;1729972;82;21014;-86
2022/10/02 09:29:28;;;;;;;10.63;8.30;;;;;;;18.09;99.74;99649.13;1729919;81;21158;-87
2022/10/02 09:32:16;;;;;;;22.82;17.07;;;;;;;18.10;99.82;99648.15;1719260;81;21000;-86
2022/10/02 09:35:13;;;;;;;13.35;10.18;;;;;;;18.10;99.86;99653.95;1716485;83;20887;-86
2022/10/02 09:37:58;;;;;;;13.70;10.82;;;;;;;18.09;99.97;99649.13;1726313;83;20915;-89
2022/10/02 09:41:14;;;;;;;13.00;10.03;;;;;;;18.08;100.00;99637.38;1724849;82;20919;-87
2022/10/02 09:44:22;;;;;;;12.58;9.80;;;;;;;18.07;100.00;99623.76;1712316;82;21308;-88
2022/10/02 09:47:17;;;;;;;13.72;10.30;;;;;;;18.07;100.00;99623.25;1707882;83;20913;-88
2022/10/02 09:50:07;;;;;;;9.93;8.23;;;;;;;18.07;100.00;99613.14;1724224;81;21006;-87
2022/10/02 09:53:32;;;;;;;13.10;10.00;;;;;;;18.05;100.00;99600.03;1717717;83;20959;-88
2022/10/02 09:56:44;;;;;;;10.23;8.70;;;;;;;18.05;100.00;99596.56;1726262;83;20923;-86
2022/10/02 09:59:31;;;;;;;6.80;5.87;;;;;;;18.04;100.00;99587.78;1727029;83;21276;-88
2022/10/02 10:02:27;;;;;;;10.93;9.00;;;;;;;18.02;100.00;99576.50;1725586;81;20915;-85
2022/10/02 10:05:31;;;;;;;12.88;8.50;;;;;;;18.02;100.00;99572.52;1724818;83;20919;-87
2022/10/02 10:08:05;;;;;;;11.22;9.15;;;;;;;18.01;100.00;99556.28;1724575;83;21033;-88
2022/10/02 10:11:28;;;;;;;11.83;8.83;;;;;;;18.00;100.00;99521.45;1724364;83;20970;-87
2022/10/02 10:14:20;;;;;;;7.67;6.90;;;;;;;18.02;100.00;99518.95;1724267;81;21156;-89
2022/10/02 10:17:18;;;;;;;12.75;9.93;;;;;;;18.00;100.00;99504.20;1724077;82;22513;-87
2022/10/02 10:20:02;;;;;;;13.13;9.08;;;;;;;18.02;100.00;99510.17;1724154;83;20974;-88
2022/10/02 10:23:19;;;;;;;10.13;7.10;;;;;;;18.02;100.00;99510.17;1729324;81;20955;-89
2022/10/02 10:26:32;;;;;;;9.58;8.30;;;;;;;18.04;100.00;99514.00;1730035;81;21470;-85
2022/10/02 10:29:08;;;;;;;9.55;8.45;;;;;;;18.05;100.00;99492.58;1720196;83;21306;-85
2022/10/02 10:31:59;;;;;;;10.43;7.62;;;;;;;18.11;100.00;99484.47;1727494;82;20969;-88
2022/10/02 10:35:03;;;;;;;10.63;8.05;;;;;;;18.15;100.00;99479.97;1727451;82;20948;-87
2022/10/02 10:41:09;;;;;;;11.35;7.78;;;;;;;18.33;100.00;99461.69;1755232;81;20874;-85
2022/10/02 10:43:56;;;;;;;8.78;6.45;;;;;;;18.42;100.00;99454.84;1754976;81;21125;-88
2022/10/02 10:46:49;;;;;;;9.05;7.03;;;;;;;18.49;99.36;99454.16;1755110;81;20946;-85
2022/10/02 10:49:43;;;;;;;8.33;6.40;;;;;;;18.51;98.49;99438.38;1755406;80;20954;-86
2022/10/02 10:52:44;;;;;;;6.83;5.97;;;;;;;18.52;97.29;99430.77;1740407;80;20996;-86
2022/10/02 10:55:19;;;;;;;7.62;6.60;;;;;;;18.53;96.22;99424.95;1755015;81;21009;-87
2022/10/02 10:58:28;;;;;;;8.00;6.05;;;;;;;18.50;95.57;99406.21;1755226;81;21250;-86
2022/10/02 11:01:13;;;;;;;7.45;5.90;;;;;;;18.47;95.50;99406.53;1755061;81;21387;-86
2022/10/02 11:03:57;;;;;;;14.30;7.28;;;;;;;18.44;94.83;99400.27;1754967;81;21380;-88
2022/10/02 11:07:06;;;;;;;7.75;5.72;;;;;;;18.43;94.94;99409.20;1754516;80;20961;-86
2022/10/02 11:09:55;;;;;;;7.17;5.95;;;;;;;18.42;94.80;99411.55;1754540;80;21257;-84
2022/10/02 11:12:37;;;;;;;8.95;8.05;;;;;;;18.38;94.45;99398.29;1748829;80;21285;-88
2022/10/02 11:15:22;;;;;;;10.75;9.75;;;;;;;18.35;94.29;99402.62;1754212;81;20966;-87
2022/10/02 11:18:11;;;;;;;8.80;7.92;;;;;;;18.34;94.39;99398.30;1754485;81;21395;-87
2022/10/02 11:21:11;;;;;;;7.47;6.47;;;;;;;18.30;94.31;99400.48;1754434;81;20917;-85
2022/10/02 11:24:10;;;;;;;7.80;7.00;;;;;;;18.29;94.32;99387.38;1754673;81;20851;-87
2022/10/02 11:27:13;;;;;;;6.80;6.20;;;;;;;18.31;94.28;99386.72;1754659;81;21866;-86
2022/10/02 11:30:13;;;;;;;7.08;5.75;;;;;;;18.31;93.54;99384.06;1754087;81;20914;-88
2022/10/02 11:33:12;;;;;;;8.28;6.53;;;;;;;18.31;93.62;99368.13;1754470;81;20867;-86
2022/10/02 11:36:01;;;;;;;8.10;7.00;;;;;;;18.30;93.36;99367.31;1754698;81;20922;-89
2022/10/02 11:38:54;;;;;;;7.87;6.00;;;;;;;18.32;93.42;99367.97;1754707;81;21360;-87
2022/10/02 11:41:52;;;;;;;6.80;5.80;;;;;;;18.32;93.26;99356.03;1754490;81;21149;-87
2022/10/02 11:45:10;;;;;;;6.90;5.87;;;;;;;18.34;92.78;99355.36;1754693;81;21036;-88
2022/10/02 11:48:12;;;;;;;9.00;5.80;;;;;;;18.36;92.74;99349.38;1754749;81;20855;-84
2022/10/02 11:50:54;;;;;;;7.05;6.05;;;;;;;18.40;92.55;99340.04;1754480;81;21006;-89
2022/10/02 11:53:33;;;;;;;7.95;7.00;;;;;;;18.44;92.51;99333.38;1754260;81;20875;-88
2022/10/02 11:56:28;;;;;;;8.85;7.50;;;;;;;18.47;92.36;99326.89;1753834;81;21275;-85
2022/10/02 11:59:09;;;;;;;9.85;7.40;;;;;;;18.53;92.33;99331.52;1754364;81;20928;-85
2022/10/02 12:01:53;;;;;;;10.30;8.33;;;;;;;18.57;92.27;99326.18;1753839;80;20915;-87
2022/10/02 12:05:04;;;;;;;10.20;8.80;;;;;;;18.59;91.80;99327.34;1754595;81;20855;-88
2022/10/02 12:07:51;;;;;;;14.80;9.85;;;;;;;18.59;91.71;99326.02;1755179;81;20919;-89
2022/10/02 12:10:30;;;;;;;14.38;12.88;;;;;;;18.57;91.68;99324.85;1721151;83;21315;-88
2022/10/02 12:13:29;;;;;;;11.90;9.33;;;;;;;18.54;91.83;99321.71;1721240;83;20951;-89
2022/10/02 12:16:06;;;;;;;15.23;10.80;;;;;;;18.49;91.69;99310.30;1721254;81;20931;-88
2022/10/02 12:18:47;;;;;;;10.28;9.18;;;;;;;18.43;92.07;99305.20;1682132;81;20998;-91
2022/10/02 12:28:18;;;;;;;21.10;14.78;;;;;;;18.22;93.24;99285.89;1724519;82;21042;-87
2022/10/02 12:31:06;;;;;;;17.10;15.13;;;;;;;18.16;93.48;99280.45;1728406;83;21539;-86
2022/10/02 12:33:50;;;;;;;17.37;14.38;;;;;;;18.10;93.64;99274.03;1726624;83;21483;-88
2022/10/02 12:36:42;;;;;;;14.43;12.13;;;;;;;18.06;93.99;99267.92;1726802;82;21028;-87
2022/10/02 12:39:45;;;;;;;14.20;12.10;;;;;;;18.02;94.18;99264.27;1693218;84;21279;-87
2022/10/02 12:42:32;;;;;;;11.73;9.55;;;;;;;17.97;94.48;99263.16;1760034;80;20964;-85
2022/10/02 12:45:16;;;;;;;14.73;10.03;;;;;;;17.92;94.72;99249.09;1760212;81;20912;-87
2022/10/02 12:48:08;;;;;;;;;;;;;;;17.88;95.02;99245.63;1786319;80;21502;-86
2022/10/02 12:51:04;;;;;;;13.43;10.25;;;;;;;17.85;95.09;99234.03;1795174;79;20119;-86
2022/10/02 12:54:26;;;;;;;11.75;7.62;;;;;;;17.80;95.31;99230.03;1794975;79;21919;-87
2022/10/02 13:00:15;;;;;;;8.90;7.25;;;;;;;17.70;95.53;99233.92;1795129;79;20966;-86
2022/10/02 13:03:07;;;;;;;7.55;5.97;;;;;;;17.63;95.91;99223.65;1794488;80;20946;-86
2022/10/02 13:05:45;;;;;;;6.50;5.90;;;;;;;17.57;95.94;99235.28;1794889;79;20978;-87